sensor_id;sensor_type;location;lat;lon;timestamp;P1;durP1;ratioP1;P2;durP2;ratioP2
12474;SDS011;6302;42.624;23.334;2023-05-20T00:01:53;8.30;;;6.27;;
12474;SDS011;6302;42.624;23.334;2023-05-20T00:04:21;8.20;;;6.50;;
12474;SDS011;6302;42.624;23.334;2023-05-20T00:06:48;10.23;;;5.73;;
12474;SDS011;6302;42.624;23.334;2023-05-20T00:09:15;8.30;;;6.87;;
12474;SDS011;6302;42.624;23.334;2023-05-20T00:11:42;7.90;;;6.90;;
12474;SDS011;6302;42.624;23.334;2023-05-20T00:14:08;6.77;;;6.07;;
12474;SDS011;6302;42.624;23.334;2023-05-20T00:16:35;9.40;;;6.10;;
12474;SDS011;6302;42.624;23.334;2023-05-20T00:19:02;8.30;;;6.70;;
12474;SDS011;6302;42.624;23.334;2023-05-20T00:21:30;9.03;;;5.93;;
12474;SDS011;6302;42.624;23.334;2023-05-20T00:23:58;7.57;;;6.10;;
12474;SDS011;6302;42.624;23.334;2023-05-20T00:26:25;9.23;;;7.03;;
12474;SDS011;6302;42.624;23.334;2023-05-20T00:28:51;7.63;;;6.60;;
12474;SDS011;6302;42.624;23.334;2023-05-20T00:31:18;9.53;;;6.80;;
12474;SDS011;6302;42.624;23.334;2023-05-20T00:33:45;9.73;;;6.90;;
12474;SDS011;6302;42.624;23.334;2023-05-20T00:36:12;8.70;;;6.03;;
12474;SDS011;6302;42.624;23.334;2023-05-20T00:38:40;7.20;;;6.50;;
12474;SDS011;6302;42.624;23.334;2023-05-20T00:41:07;8.23;;;6.90;;
12474;SDS011;6302;42.624;23.334;2023-05-20T00:43:34;8.53;;;6.90;;
12474;SDS011;6302;42.624;23.334;2023-05-20T00:46:00;8.03;;;6.57;;
12474;SDS011;6302;42.624;23.334;2023-05-20T00:48:28;7.50;;;6.70;;
12474;SDS011;6302;42.624;23.334;2023-05-20T00:51:02;7.60;;;6.80;;
12474;SDS011;6302;42.624;23.334;2023-05-20T00:53:29;7.53;;;6.53;;
12474;SDS011;6302;42.624;23.334;2023-05-20T00:55:57;7.53;;;6.47;;
12474;SDS011;6302;42.624;23.334;2023-05-20T00:58:24;7.10;;;6.23;;
12474;SDS011;6302;42.624;23.334;2023-05-20T01:00:51;7.60;;;6.27;;
12474;SDS011;6302;42.624;23.334;2023-05-20T01:03:17;7.63;;;6.67;;
12474;SDS011;6302;42.624;23.334;2023-05-20T01:05:45;8.33;;;6.67;;
12474;SDS011;6302;42.624;23.334;2023-05-20T01:08:11;8.30;;;7.17;;
12474;SDS011;6302;42.624;23.334;2023-05-20T01:10:40;8.53;;;6.87;;
12474;SDS011;6302;42.624;23.334;2023-05-20T01:13:14;7.60;;;6.73;;
12474;SDS011;6302;42.624;23.334;2023-05-20T01:15:45;9.63;;;6.20;;
12474;SDS011;6302;42.624;23.334;2023-05-20T01:18:13;7.00;;;6.10;;
12474;SDS011;6302;42.624;23.334;2023-05-20T01:20:42;8.80;;;7.00;;
12474;SDS011;6302;42.624;23.334;2023-05-20T01:23:13;7.00;;;6.30;;
12474;SDS011;6302;42.624;23.334;2023-05-20T01:25:41;7.10;;;6.40;;
12474;SDS011;6302;42.624;23.334;2023-05-20T01:28:08;7.73;;;6.73;;
12474;SDS011;6302;42.624;23.334;2023-05-20T01:30:36;8.00;;;6.27;;
12474;SDS011;6302;42.624;23.334;2023-05-20T01:33:08;8.47;;;6.90;;
12474;SDS011;6302;42.624;23.334;2023-05-20T01:35:37;8.87;;;6.90;;
12474;SDS011;6302;42.624;23.334;2023-05-20T01:38:06;8.30;;;6.63;;
12474;SDS011;6302;42.624;23.334;2023-05-20T01:40:34;8.67;;;6.90;;
12474;SDS011;6302;42.624;23.334;2023-05-20T01:43:02;10.17;;;6.83;;
12474;SDS011;6302;42.624;23.334;2023-05-20T01:45:30;8.60;;;6.63;;
12474;SDS011;6302;42.624;23.334;2023-05-20T01:47:57;9.93;;;6.90;;
12474;SDS011;6302;42.624;23.334;2023-05-20T01:50:23;9.10;;;7.43;;
12474;SDS011;6302;42.624;23.334;2023-05-20T01:52:50;7.90;;;7.10;;
12474;SDS011;6302;42.624;23.334;2023-05-20T01:55:17;7.67;;;6.87;;
12474;SDS011;6302;42.624;23.334;2023-05-20T01:57:46;8.20;;;6.63;;
12474;SDS011;6302;42.624;23.334;2023-05-20T02:00:13;8.37;;;6.83;;
12474;SDS011;6302;42.624;23.334;2023-05-20T02:02:40;7.73;;;6.93;;
12474;SDS011;6302;42.624;23.334;2023-05-20T02:05:07;7.47;;;6.77;;
12474;SDS011;6302;42.624;23.334;2023-05-20T02:07:35;7.80;;;7.00;;
12474;SDS011;6302;42.624;23.334;2023-05-20T02:10:02;9.97;;;7.43;;
12474;SDS011;6302;42.624;23.334;2023-05-20T02:12:29;14.83;;;8.20;;
12474;SDS011;6302;42.624;23.334;2023-05-20T02:14:57;8.00;;;7.17;;
12474;SDS011;6302;42.624;23.334;2023-05-20T02:17:24;12.50;;;8.33;;
12474;SDS011;6302;42.624;23.334;2023-05-20T02:19:51;9.30;;;8.33;;
12474;SDS011;6302;42.624;23.334;2023-05-20T02:22:18;7.87;;;7.07;;
12474;SDS011;6302;42.624;23.334;2023-05-20T02:24:44;8.83;;;6.83;;
12474;SDS011;6302;42.624;23.334;2023-05-20T02:27:11;8.60;;;7.03;;
12474;SDS011;6302;42.624;23.334;2023-05-20T02:29:38;13.77;;;7.63;;
12474;SDS011;6302;42.624;23.334;2023-05-20T02:32:06;7.30;;;6.33;;
12474;SDS011;6302;42.624;23.334;2023-05-20T02:34:34;9.33;;;6.87;;
12474;SDS011;6302;42.624;23.334;2023-05-20T02:37:00;11.10;;;8.33;;
12474;SDS011;6302;42.624;23.334;2023-05-20T02:39:27;17.07;;;10.47;;
12474;SDS011;6302;42.624;23.334;2023-05-20T02:41:54;17.10;;;11.73;;
12474;SDS011;6302;42.624;23.334;2023-05-20T02:44:21;18.63;;;12.40;;
12474;SDS011;6302;42.624;23.334;2023-05-20T02:46:48;17.87;;;11.87;;
12474;SDS011;6302;42.624;23.334;2023-05-20T02:49:16;14.37;;;9.70;;
12474;SDS011;6302;42.624;23.334;2023-05-20T02:51:42;11.03;;;8.80;;
12474;SDS011;6302;42.624;23.334;2023-05-20T02:54:09;8.77;;;7.37;;
12474;SDS011;6302;42.624;23.334;2023-05-20T02:56:37;9.33;;;7.27;;
12474;SDS011;6302;42.624;23.334;2023-05-20T02:59:04;12.83;;;7.93;;
12474;SDS011;6302;42.624;23.334;2023-05-20T03:01:31;10.00;;;8.00;;
12474;SDS011;6302;42.624;23.334;2023-05-20T03:03:59;9.40;;;7.50;;
12474;SDS011;6302;42.624;23.334;2023-05-20T03:06:29;8.93;;;7.37;;
12474;SDS011;6302;42.624;23.334;2023-05-20T03:08:56;7.97;;;6.87;;
12474;SDS011;6302;42.624;23.334;2023-05-20T03:11:23;7.77;;;6.53;;
12474;SDS011;6302;42.624;23.334;2023-05-20T03:13:50;6.80;;;6.10;;
12474;SDS011;6302;42.624;23.334;2023-05-20T03:16:17;7.23;;;6.40;;
12474;SDS011;6302;42.624;23.334;2023-05-20T03:18:44;8.73;;;6.47;;
12474;SDS011;6302;42.624;23.334;2023-05-20T03:21:11;7.57;;;5.93;;
12474;SDS011;6302;42.624;23.334;2023-05-20T03:23:39;8.40;;;6.57;;
12474;SDS011;6302;42.624;23.334;2023-05-20T03:26:06;7.60;;;5.93;;
12474;SDS011;6302;42.624;23.334;2023-05-20T03:28:33;7.67;;;6.83;;
12474;SDS011;6302;42.624;23.334;2023-05-20T03:31:01;7.50;;;6.60;;
12474;SDS011;6302;42.624;23.334;2023-05-20T03:33:28;7.60;;;6.63;;
12474;SDS011;6302;42.624;23.334;2023-05-20T03:35:55;6.50;;;5.90;;
12474;SDS011;6302;42.624;23.334;2023-05-20T03:38:22;8.67;;;6.40;;
12474;SDS011;6302;42.624;23.334;2023-05-20T03:40:50;8.47;;;6.20;;
12474;SDS011;6302;42.624;23.334;2023-05-20T03:43:17;9.50;;;5.43;;
12474;SDS011;6302;42.624;23.334;2023-05-20T03:45:44;10.40;;;5.93;;
12474;SDS011;6302;42.624;23.334;2023-05-20T03:48:10;6.43;;;5.83;;
12474;SDS011;6302;42.624;23.334;2023-05-20T03:50:37;6.83;;;6.03;;
12474;SDS011;6302;42.624;23.334;2023-05-20T03:53:04;8.90;;;7.47;;
12474;SDS011;6302;42.624;23.334;2023-05-20T03:55:31;10.07;;;6.90;;
12474;SDS011;6302;42.624;23.334;2023-05-20T03:57:59;7.27;;;6.33;;
12474;SDS011;6302;42.624;23.334;2023-05-20T04:00:26;9.57;;;6.30;;
12474;SDS011;6302;42.624;23.334;2023-05-20T04:02:55;6.77;;;5.77;;
12474;SDS011;6302;42.624;23.334;2023-05-20T04:05:22;9.97;;;6.67;;
12474;SDS011;6302;42.624;23.334;2023-05-20T04:07:49;8.87;;;6.77;;
12474;SDS011;6302;42.624;23.334;2023-05-20T04:10:17;6.90;;;6.20;;
12474;SDS011;6302;42.624;23.334;2023-05-20T04:12:45;8.50;;;6.33;;
12474;SDS011;6302;42.624;23.334;2023-05-20T04:15:13;8.93;;;7.07;;
12474;SDS011;6302;42.624;23.334;2023-05-20T04:17:40;7.90;;;6.57;;
12474;SDS011;6302;42.624;23.334;2023-05-20T04:20:07;8.00;;;7.03;;
12474;SDS011;6302;42.624;23.334;2023-05-20T04:22:35;8.13;;;7.33;;
12474;SDS011;6302;42.624;23.334;2023-05-20T04:25:03;10.60;;;8.27;;
12474;SDS011;6302;42.624;23.334;2023-05-20T04:27:31;9.10;;;8.10;;
12474;SDS011;6302;42.624;23.334;2023-05-20T04:29:58;12.40;;;9.90;;
12474;SDS011;6302;42.624;23.334;2023-05-20T04:32:27;12.10;;;9.87;;
12474;SDS011;6302;42.624;23.334;2023-05-20T04:34:54;12.30;;;9.73;;
12474;SDS011;6302;42.624;23.334;2023-05-20T04:37:21;12.27;;;9.37;;
12474;SDS011;6302;42.624;23.334;2023-05-20T04:39:49;11.90;;;9.57;;
12474;SDS011;6302;42.624;23.334;2023-05-20T04:42:16;10.57;;;9.47;;
12474;SDS011;6302;42.624;23.334;2023-05-20T04:44:44;11.73;;;8.87;;
12474;SDS011;6302;42.624;23.334;2023-05-20T04:47:12;12.83;;;9.03;;
12474;SDS011;6302;42.624;23.334;2023-05-20T04:49:41;12.50;;;8.67;;
12474;SDS011;6302;42.624;23.334;2023-05-20T04:52:08;9.40;;;8.17;;
12474;SDS011;6302;42.624;23.334;2023-05-20T04:54:35;11.90;;;8.30;;
12474;SDS011;6302;42.624;23.334;2023-05-20T04:57:02;10.00;;;8.70;;
12474;SDS011;6302;42.624;23.334;2023-05-20T04:59:29;11.33;;;8.90;;
12474;SDS011;6302;42.624;23.334;2023-05-20T05:01:56;9.80;;;8.47;;
12474;SDS011;6302;42.624;23.334;2023-05-20T05:04:23;11.87;;;8.97;;
12474;SDS011;6302;42.624;23.334;2023-05-20T05:06:51;10.77;;;9.20;;
12474;SDS011;6302;42.624;23.334;2023-05-20T05:09:18;11.97;;;8.60;;
12474;SDS011;6302;42.624;23.334;2023-05-20T05:11:45;10.30;;;8.93;;
12474;SDS011;6302;42.624;23.334;2023-05-20T05:14:11;11.60;;;8.10;;
12474;SDS011;6302;42.624;23.334;2023-05-20T05:16:38;9.67;;;8.13;;
12474;SDS011;6302;42.624;23.334;2023-05-20T05:19:05;9.57;;;8.10;;
12474;SDS011;6302;42.624;23.334;2023-05-20T05:21:32;11.00;;;7.70;;
12474;SDS011;6302;42.624;23.334;2023-05-20T05:24:00;8.80;;;7.03;;
12474;SDS011;6302;42.624;23.334;2023-05-20T05:26:27;9.83;;;7.17;;
12474;SDS011;6302;42.624;23.334;2023-05-20T05:28:54;13.73;;;8.30;;
12474;SDS011;6302;42.624;23.334;2023-05-20T05:31:21;9.37;;;7.40;;
12474;SDS011;6302;42.624;23.334;2023-05-20T05:33:48;8.77;;;7.87;;
12474;SDS011;6302;42.624;23.334;2023-05-20T05:36:15;10.30;;;7.53;;
12474;SDS011;6302;42.624;23.334;2023-05-20T05:38:42;10.13;;;7.10;;
12474;SDS011;6302;42.624;23.334;2023-05-20T05:41:10;8.53;;;6.70;;
12474;SDS011;6302;42.624;23.334;2023-05-20T05:43:37;8.40;;;5.87;;
12474;SDS011;6302;42.624;23.334;2023-05-20T05:46:04;8.53;;;7.47;;
12474;SDS011;6302;42.624;23.334;2023-05-20T05:48:31;5.93;;;5.00;;
12474;SDS011;6302;42.624;23.334;2023-05-20T05:50:58;7.17;;;5.40;;
12474;SDS011;6302;42.624;23.334;2023-05-20T05:53:24;6.30;;;5.70;;
12474;SDS011;6302;42.624;23.334;2023-05-20T05:55:51;6.10;;;5.50;;
12474;SDS011;6302;42.624;23.334;2023-05-20T05:58:19;5.77;;;5.13;;
12474;SDS011;6302;42.624;23.334;2023-05-20T06:00:46;6.97;;;5.50;;
12474;SDS011;6302;42.624;23.334;2023-05-20T06:03:16;5.93;;;5.33;;
12474;SDS011;6302;42.624;23.334;2023-05-20T06:05:44;6.73;;;5.97;;
12474;SDS011;6302;42.624;23.334;2023-05-20T06:08:11;7.07;;;4.90;;
12474;SDS011;6302;42.624;23.334;2023-05-20T06:10:38;7.83;;;5.53;;
12474;SDS011;6302;42.624;23.334;2023-05-20T06:13:05;5.83;;;5.20;;
12474;SDS011;6302;42.624;23.334;2023-05-20T06:15:33;6.67;;;5.40;;
12474;SDS011;6302;42.624;23.334;2023-05-20T06:18:00;6.33;;;5.50;;
12474;SDS011;6302;42.624;23.334;2023-05-20T06:20:27;6.17;;;5.27;;
12474;SDS011;6302;42.624;23.334;2023-05-20T06:22:54;6.07;;;5.47;;
12474;SDS011;6302;42.624;23.334;2023-05-20T06:25:21;5.73;;;5.23;;
12474;SDS011;6302;42.624;23.334;2023-05-20T06:27:48;5.90;;;5.30;;
12474;SDS011;6302;42.624;23.334;2023-05-20T06:30:17;6.50;;;5.87;;
12474;SDS011;6302;42.624;23.334;2023-05-20T06:32:45;6.37;;;5.63;;
12474;SDS011;6302;42.624;23.334;2023-05-20T06:35:12;6.40;;;5.77;;
12474;SDS011;6302;42.624;23.334;2023-05-20T06:37:39;7.70;;;5.20;;
12474;SDS011;6302;42.624;23.334;2023-05-20T06:40:06;6.53;;;5.70;;
12474;SDS011;6302;42.624;23.334;2023-05-20T06:42:33;6.33;;;5.23;;
12474;SDS011;6302;42.624;23.334;2023-05-20T06:45:00;6.03;;;4.97;;
12474;SDS011;6302;42.624;23.334;2023-05-20T06:47:27;9.23;;;5.00;;
12474;SDS011;6302;42.624;23.334;2023-05-20T06:49:55;5.93;;;5.33;;
12474;SDS011;6302;42.624;23.334;2023-05-20T06:52:22;5.60;;;5.10;;
12474;SDS011;6302;42.624;23.334;2023-05-20T06:54:48;6.10;;;5.50;;
12474;SDS011;6302;42.624;23.334;2023-05-20T06:57:15;6.30;;;5.70;;
12474;SDS011;6302;42.624;23.334;2023-05-20T06:59:42;6.17;;;5.57;;
12474;SDS011;6302;42.624;23.334;2023-05-20T07:02:10;5.87;;;5.33;;
12474;SDS011;6302;42.624;23.334;2023-05-20T07:04:37;7.47;;;5.97;;
12474;SDS011;6302;42.624;23.334;2023-05-20T07:07:05;7.80;;;5.10;;
12474;SDS011;6302;42.624;23.334;2023-05-20T07:09:32;7.23;;;6.03;;
12474;SDS011;6302;42.624;23.334;2023-05-20T07:11:58;5.87;;;5.27;;
12474;SDS011;6302;42.624;23.334;2023-05-20T07:14:26;7.23;;;5.70;;
12474;SDS011;6302;42.624;23.334;2023-05-20T07:16:52;7.07;;;6.13;;
12474;SDS011;6302;42.624;23.334;2023-05-20T07:19:19;5.97;;;5.37;;
12474;SDS011;6302;42.624;23.334;2023-05-20T07:21:46;7.37;;;5.40;;
12474;SDS011;6302;42.624;23.334;2023-05-20T07:24:15;6.43;;;5.80;;
12474;SDS011;6302;42.624;23.334;2023-05-20T07:26:42;9.47;;;5.93;;
12474;SDS011;6302;42.624;23.334;2023-05-20T07:29:09;7.23;;;5.63;;
12474;SDS011;6302;42.624;23.334;2023-05-20T07:31:36;6.27;;;5.67;;
12474;SDS011;6302;42.624;23.334;2023-05-20T07:34:03;6.97;;;5.43;;
12474;SDS011;6302;42.624;23.334;2023-05-20T07:36:30;5.83;;;5.23;;
12474;SDS011;6302;42.624;23.334;2023-05-20T07:38:57;5.83;;;5.20;;
12474;SDS011;6302;42.624;23.334;2023-05-20T07:41:25;7.07;;;5.50;;
12474;SDS011;6302;42.624;23.334;2023-05-20T07:43:52;7.17;;;5.93;;
12474;SDS011;6302;42.624;23.334;2023-05-20T07:46:19;7.43;;;5.60;;
12474;SDS011;6302;42.624;23.334;2023-05-20T07:48:46;7.67;;;5.77;;
12474;SDS011;6302;42.624;23.334;2023-05-20T07:51:13;7.43;;;6.17;;
12474;SDS011;6302;42.624;23.334;2023-05-20T07:53:40;7.38;;;5.82;;
12474;SDS011;6302;42.624;23.334;2023-05-20T07:56:07;6.27;;;5.67;;
12474;SDS011;6302;42.624;23.334;2023-05-20T07:58:35;8.10;;;6.97;;
12474;SDS011;6302;42.624;23.334;2023-05-20T08:01:02;8.40;;;6.67;;
12474;SDS011;6302;42.624;23.334;2023-05-20T08:03:29;6.20;;;5.60;;
12474;SDS011;6302;42.624;23.334;2023-05-20T08:05:55;7.05;;;6.15;;
12474;SDS011;6302;42.624;23.334;2023-05-20T08:08:22;9.00;;;6.43;;
12474;SDS011;6302;42.624;23.334;2023-05-20T08:10:49;6.07;;;5.47;;
12474;SDS011;6302;42.624;23.334;2023-05-20T08:13:17;8.07;;;5.47;;
12474;SDS011;6302;42.624;23.334;2023-05-20T08:15:45;7.03;;;6.35;;
12474;SDS011;6302;42.624;23.334;2023-05-20T08:18:12;7.22;;;5.43;;
12474;SDS011;6302;42.624;23.334;2023-05-20T08:20:39;6.13;;;5.53;;
12474;SDS011;6302;42.624;23.334;2023-05-20T08:23:06;6.23;;;5.60;;
12474;SDS011;6302;42.624;23.334;2023-05-20T08:25:33;7.53;;;6.10;;
12474;SDS011;6302;42.624;23.334;2023-05-20T08:28:00;6.70;;;5.57;;
12474;SDS011;6302;42.624;23.334;2023-05-20T08:30:29;7.93;;;6.27;;
12474;SDS011;6302;42.624;23.334;2023-05-20T08:32:57;8.68;;;7.15;;
12474;SDS011;6302;42.624;23.334;2023-05-20T08:35:24;9.47;;;6.10;;
12474;SDS011;6302;42.624;23.334;2023-05-20T08:37:51;6.95;;;6.25;;
12474;SDS011;6302;42.624;23.334;2023-05-20T08:40:19;10.27;;;6.97;;
12474;SDS011;6302;42.624;23.334;2023-05-20T08:42:47;8.10;;;6.97;;
12474;SDS011;6302;42.624;23.334;2023-05-20T08:45:17;7.27;;;6.40;;
12474;SDS011;6302;42.624;23.334;2023-05-20T08:47:44;6.67;;;5.90;;
12474;SDS011;6302;42.624;23.334;2023-05-20T08:50:13;6.20;;;5.60;;
12474;SDS011;6302;42.624;23.334;2023-05-20T08:52:41;6.82;;;6.00;;
12474;SDS011;6302;42.624;23.334;2023-05-20T08:55:10;6.97;;;5.97;;
12474;SDS011;6302;42.624;23.334;2023-05-20T08:57:40;6.33;;;5.30;;
12474;SDS011;6302;42.624;23.334;2023-05-20T09:00:10;9.43;;;6.35;;
12474;SDS011;6302;42.624;23.334;2023-05-20T09:02:41;8.90;;;6.60;;
12474;SDS011;6302;42.624;23.334;2023-05-20T09:05:09;10.27;;;7.10;;
12474;SDS011;6302;42.624;23.334;2023-05-20T09:07:37;11.30;;;8.73;;
12474;SDS011;6302;42.624;23.334;2023-05-20T09:10:06;7.73;;;5.93;;
12474;SDS011;6302;42.624;23.334;2023-05-20T09:12:34;7.53;;;6.70;;
12474;SDS011;6302;42.624;23.334;2023-05-20T09:15:01;11.32;;;7.13;;
12474;SDS011;6302;42.624;23.334;2023-05-20T09:17:27;9.35;;;6.32;;
12474;SDS011;6302;42.624;23.334;2023-05-20T09:19:54;7.00;;;6.30;;
12474;SDS011;6302;42.624;23.334;2023-05-20T09:22:21;6.53;;;5.82;;
12474;SDS011;6302;42.624;23.334;2023-05-20T09:24:50;6.73;;;5.87;;
12474;SDS011;6302;42.624;23.334;2023-05-20T09:27:17;6.97;;;6.20;;
12474;SDS011;6302;42.624;23.334;2023-05-20T09:29:46;7.47;;;6.00;;
12474;SDS011;6302;42.624;23.334;2023-05-20T09:32:13;7.97;;;6.40;;
12474;SDS011;6302;42.624;23.334;2023-05-20T09:34:40;7.95;;;6.57;;
12474;SDS011;6302;42.624;23.334;2023-05-20T09:37:09;8.40;;;6.30;;
12474;SDS011;6302;42.624;23.334;2023-05-20T09:39:38;6.95;;;6.25;;
12474;SDS011;6302;42.624;23.334;2023-05-20T09:42:17;6.68;;;5.68;;
12474;SDS011;6302;42.624;23.334;2023-05-20T09:44:47;6.90;;;6.03;;
12474;SDS011;6302;42.624;23.334;2023-05-20T09:47:15;7.73;;;7.00;;
12474;SDS011;6302;42.624;23.334;2023-05-20T09:49:44;7.10;;;6.45;;
12474;SDS011;6302;42.624;23.334;2023-05-20T09:52:11;8.13;;;6.80;;
12474;SDS011;6302;42.624;23.334;2023-05-20T09:54:41;8.20;;;6.50;;
12474;SDS011;6302;42.624;23.334;2023-05-20T09:57:08;10.50;;;6.60;;
12474;SDS011;6302;42.624;23.334;2023-05-20T09:59:37;8.50;;;6.27;;
12474;SDS011;6302;42.624;23.334;2023-05-20T10:02:05;7.25;;;6.50;;
12474;SDS011;6302;42.624;23.334;2023-05-20T10:04:32;7.70;;;6.10;;
12474;SDS011;6302;42.624;23.334;2023-05-20T10:07:08;7.63;;;5.97;;
12474;SDS011;6302;42.624;23.334;2023-05-20T10:09:53;6.67;;;6.07;;
12474;SDS011;6302;42.624;23.334;2023-05-20T10:12:43;6.57;;;5.87;;
12474;SDS011;6302;42.624;23.334;2023-05-20T10:15:21;7.30;;;6.00;;
12474;SDS011;6302;42.624;23.334;2023-05-20T10:17:55;6.63;;;5.68;;
12474;SDS011;6302;42.624;23.334;2023-05-20T10:20:43;7.20;;;5.73;;
12474;SDS011;6302;42.624;23.334;2023-05-20T10:23:19;6.10;;;5.50;;
12474;SDS011;6302;42.624;23.334;2023-05-20T10:25:50;5.95;;;5.35;;
12474;SDS011;6302;42.624;23.334;2023-05-20T10:28:26;6.03;;;5.30;;
12474;SDS011;6302;42.624;23.334;2023-05-20T10:30:56;7.47;;;4.60;;
12474;SDS011;6302;42.624;23.334;2023-05-20T10:33:24;6.00;;;5.10;;
12474;SDS011;6302;42.624;23.334;2023-05-20T10:35:52;5.63;;;4.60;;
12474;SDS011;6302;42.624;23.334;2023-05-20T10:38:19;5.30;;;4.55;;
12474;SDS011;6302;42.624;23.334;2023-05-20T10:40:46;8.27;;;5.28;;
12474;SDS011;6302;42.624;23.334;2023-05-20T10:43:14;5.23;;;4.73;;
12474;SDS011;6302;42.624;23.334;2023-05-20T10:45:46;6.72;;;4.28;;
12474;SDS011;6302;42.624;23.334;2023-05-20T10:48:24;5.72;;;4.38;;
12474;SDS011;6302;42.624;23.334;2023-05-20T10:50:53;4.80;;;4.20;;
12474;SDS011;6302;42.624;23.334;2023-05-20T10:53:22;6.38;;;4.38;;
12474;SDS011;6302;42.624;23.334;2023-05-20T10:55:50;4.70;;;4.20;;
12474;SDS011;6302;42.624;23.334;2023-05-20T10:58:19;6.77;;;4.73;;
12474;SDS011;6302;42.624;23.334;2023-05-20T11:00:47;5.65;;;4.40;;
12474;SDS011;6302;42.624;23.334;2023-05-20T11:03:15;4.53;;;4.07;;
12474;SDS011;6302;42.624;23.334;2023-05-20T11:05:44;5.87;;;4.20;;
12474;SDS011;6302;42.624;23.334;2023-05-20T11:08:12;7.20;;;4.30;;
12474;SDS011;6302;42.624;23.334;2023-05-20T11:10:40;7.70;;;4.90;;
12474;SDS011;6302;42.624;23.334;2023-05-20T11:13:10;6.72;;;4.68;;
12474;SDS011;6302;42.624;23.334;2023-05-20T11:15:38;7.70;;;5.05;;
12474;SDS011;6302;42.624;23.334;2023-05-20T11:18:05;6.85;;;4.95;;
12474;SDS011;6302;42.624;23.334;2023-05-20T11:20:32;5.40;;;4.63;;
12474;SDS011;6302;42.624;23.334;2023-05-20T11:23:01;6.53;;;5.60;;
12474;SDS011;6302;42.624;23.334;2023-05-20T11:25:28;9.48;;;5.53;;
12474;SDS011;6302;42.624;23.334;2023-05-20T11:27:55;5.88;;;4.60;;
12474;SDS011;6302;42.624;23.334;2023-05-20T11:30:22;6.95;;;4.60;;
12474;SDS011;6302;42.624;23.334;2023-05-20T11:32:56;4.78;;;4.30;;
12474;SDS011;6302;42.624;23.334;2023-05-20T11:35:23;5.15;;;4.45;;
12474;SDS011;6302;42.624;23.334;2023-05-20T11:37:55;6.70;;;4.93;;
12474;SDS011;6302;42.624;23.334;2023-05-20T11:40:24;5.70;;;5.20;;
12474;SDS011;6302;42.624;23.334;2023-05-20T11:42:55;7.30;;;5.25;;
12474;SDS011;6302;42.624;23.334;2023-05-20T11:45:22;10.68;;;7.40;;
12474;SDS011;6302;42.624;23.334;2023-05-20T11:47:58;6.25;;;5.15;;
12474;SDS011;6302;42.624;23.334;2023-05-20T11:50:25;6.97;;;5.00;;
12474;SDS011;6302;42.624;23.334;2023-05-20T11:52:58;6.32;;;4.70;;
12474;SDS011;6302;42.624;23.334;2023-05-20T11:55:27;5.78;;;5.13;;
12474;SDS011;6302;42.624;23.334;2023-05-20T11:57:53;5.18;;;4.68;;
12474;SDS011;6302;42.624;23.334;2023-05-20T12:00:22;5.03;;;4.60;;
12474;SDS011;6302;42.624;23.334;2023-05-20T12:02:49;5.80;;;4.65;;
12474;SDS011;6302;42.624;23.334;2023-05-20T12:05:16;5.75;;;4.72;;
12474;SDS011;6302;42.624;23.334;2023-05-20T12:07:43;6.45;;;4.53;;
12474;SDS011;6302;42.624;23.334;2023-05-20T12:10:10;7.18;;;4.95;;
12474;SDS011;6302;42.624;23.334;2023-05-20T12:12:39;5.30;;;4.80;;
12474;SDS011;6302;42.624;23.334;2023-05-20T12:15:06;4.80;;;4.40;;
12474;SDS011;6302;42.624;23.334;2023-05-20T12:17:34;5.38;;;4.88;;
12474;SDS011;6302;42.624;23.334;2023-05-20T12:20:10;5.20;;;4.70;;
12474;SDS011;6302;42.624;23.334;2023-05-20T12:22:38;5.30;;;4.80;;
12474;SDS011;6302;42.624;23.334;2023-05-20T12:25:05;6.18;;;5.57;;
12474;SDS011;6302;42.624;23.334;2023-05-20T12:27:32;4.40;;;4.03;;
12474;SDS011;6302;42.624;23.334;2023-05-20T12:30:00;6.07;;;5.50;;
12474;SDS011;6302;42.624;23.334;2023-05-20T12:32:27;5.63;;;4.73;;
12474;SDS011;6302;42.624;23.334;2023-05-20T12:34:54;5.63;;;4.53;;
12474;SDS011;6302;42.624;23.334;2023-05-20T12:37:21;6.97;;;4.50;;
12474;SDS011;6302;42.624;23.334;2023-05-20T12:39:48;6.23;;;5.37;;
12474;SDS011;6302;42.624;23.334;2023-05-20T12:42:15;5.73;;;4.30;;
12474;SDS011;6302;42.624;23.334;2023-05-20T12:44:41;4.27;;;3.87;;
12474;SDS011;6302;42.624;23.334;2023-05-20T12:47:09;4.60;;;3.50;;
12474;SDS011;6302;42.624;23.334;2023-05-20T12:49:36;5.67;;;3.83;;
12474;SDS011;6302;42.624;23.334;2023-05-20T12:52:03;3.90;;;3.43;;
12474;SDS011;6302;42.624;23.334;2023-05-20T12:54:30;4.33;;;3.67;;
12474;SDS011;6302;42.624;23.334;2023-05-20T12:56:57;5.73;;;3.93;;
12474;SDS011;6302;42.624;23.334;2023-05-20T12:59:24;4.20;;;3.50;;
12474;SDS011;6302;42.624;23.334;2023-05-20T13:01:51;4.50;;;3.80;;
12474;SDS011;6302;42.624;23.334;2023-05-20T13:04:19;4.23;;;3.83;;
12474;SDS011;6302;42.624;23.334;2023-05-20T13:06:46;4.93;;;3.43;;
12474;SDS011;6302;42.624;23.334;2023-05-20T13:09:13;4.47;;;3.50;;
12474;SDS011;6302;42.624;23.334;2023-05-20T13:11:40;4.13;;;3.73;;
12474;SDS011;6302;42.624;23.334;2023-05-20T13:14:06;4.03;;;3.63;;
12474;SDS011;6302;42.624;23.334;2023-05-20T13:16:33;4.00;;;3.70;;
12474;SDS011;6302;42.624;23.334;2023-05-20T13:19:00;4.00;;;3.57;;
12474;SDS011;6302;42.624;23.334;2023-05-20T13:21:28;3.83;;;3.53;;
12474;SDS011;6302;42.624;23.334;2023-05-20T13:23:55;4.57;;;4.17;;
12474;SDS011;6302;42.624;23.334;2023-05-20T13:26:22;7.30;;;4.10;;
12474;SDS011;6302;42.624;23.334;2023-05-20T13:28:49;5.33;;;4.83;;
12474;SDS011;6302;42.624;23.334;2023-05-20T13:31:16;6.13;;;4.80;;
12474;SDS011;6302;42.624;23.334;2023-05-20T13:33:43;4.67;;;4.27;;
12474;SDS011;6302;42.624;23.334;2023-05-20T13:36:10;4.47;;;4.07;;
12474;SDS011;6302;42.624;23.334;2023-05-20T13:38:38;4.90;;;4.20;;
12474;SDS011;6302;42.624;23.334;2023-05-20T13:41:05;5.90;;;4.55;;
12474;SDS011;6302;42.624;23.334;2023-05-20T13:43:31;6.22;;;4.35;;
12474;SDS011;6302;42.624;23.334;2023-05-20T13:45:58;4.93;;;3.80;;
12474;SDS011;6302;42.624;23.334;2023-05-20T13:48:25;7.03;;;4.43;;
12474;SDS011;6302;42.624;23.334;2023-05-20T13:50:53;6.40;;;3.90;;
12474;SDS011;6302;42.624;23.334;2023-05-20T13:53:20;6.07;;;3.83;;
12474;SDS011;6302;42.624;23.334;2023-05-20T13:55:48;4.10;;;3.70;;
12474;SDS011;6302;42.624;23.334;2023-05-20T13:58:16;4.30;;;3.90;;
12474;SDS011;6302;42.624;23.334;2023-05-20T14:00:43;5.60;;;4.40;;
12474;SDS011;6302;42.624;23.334;2023-05-20T14:03:10;5.33;;;4.23;;
12474;SDS011;6302;42.624;23.334;2023-05-20T14:05:37;5.03;;;4.50;;
12474;SDS011;6302;42.624;23.334;2023-05-20T14:08:04;8.73;;;5.38;;
12474;SDS011;6302;42.624;23.334;2023-05-20T14:10:31;7.57;;;5.10;;
12474;SDS011;6302;42.624;23.334;2023-05-20T14:12:59;6.13;;;4.33;;
12474;SDS011;6302;42.624;23.334;2023-05-20T14:15:26;4.60;;;4.13;;
12474;SDS011;6302;42.624;23.334;2023-05-20T14:17:55;5.13;;;3.80;;
12474;SDS011;6302;42.624;23.334;2023-05-20T14:20:22;4.23;;;3.77;;
12474;SDS011;6302;42.624;23.334;2023-05-20T14:22:49;6.20;;;4.70;;
12474;SDS011;6302;42.624;23.334;2023-05-20T14:25:16;4.13;;;3.73;;
12474;SDS011;6302;42.624;23.334;2023-05-20T14:27:44;5.40;;;4.07;;
12474;SDS011;6302;42.624;23.334;2023-05-20T14:30:12;5.30;;;4.60;;
12474;SDS011;6302;42.624;23.334;2023-05-20T14:32:39;6.07;;;5.00;;
12474;SDS011;6302;42.624;23.334;2023-05-20T14:35:06;7.83;;;5.60;;
12474;SDS011;6302;42.624;23.334;2023-05-20T14:37:33;6.17;;;5.57;;
12474;SDS011;6302;42.624;23.334;2023-05-20T14:40:00;5.37;;;4.70;;
12474;SDS011;6302;42.624;23.334;2023-05-20T14:42:27;5.40;;;4.90;;
12474;SDS011;6302;42.624;23.334;2023-05-20T14:44:54;10.10;;;6.20;;
12474;SDS011;6302;42.624;23.334;2023-05-20T14:47:22;12.33;;;6.90;;
12474;SDS011;6302;42.624;23.334;2023-05-20T14:49:50;7.53;;;5.70;;